createdAt,value
2023-04-10T00:00:38.342Z,15.90
2023-04-10T00:03:06.105Z,16.38
2023-04-10T00:05:33.500Z,15.95
2023-04-10T00:08:00.957Z,17.60
2023-04-10T00:10:30.508Z,16.98
2023-04-10T00:12:59.116Z,17.50
2023-04-10T00:15:26.458Z,17.00
2023-04-10T00:17:55.432Z,17.08
2023-04-10T00:20:23.932Z,17.17
2023-04-10T00:22:51.208Z,16.60
2023-04-10T00:25:18.485Z,18.42
2023-04-10T00:27:45.643Z,16.58
2023-04-10T00:30:12.821Z,17.20
2023-04-10T00:32:40.119Z,18.38
2023-04-10T00:35:09.045Z,19.45
2023-04-10T00:37:36.705Z,17.95
2023-04-10T00:40:06.304Z,16.88
2023-04-10T00:42:33.549Z,17.15
2023-04-10T00:45:01.064Z,16.70
2023-04-10T00:47:28.869Z,16.42
2023-04-10T00:49:56.137Z,17.58
2023-04-10T00:52:25.677Z,17.65
2023-04-10T00:54:53.006Z,16.27
2023-04-10T00:57:20.323Z,17.13
2023-04-10T00:59:48.988Z,16.23
2023-04-10T01:02:16.316Z,16.40
2023-04-10T01:04:44.005Z,15.07
2023-04-10T01:07:38.516Z,17.02
2023-04-10T01:10:26.333Z,17.60
2023-04-10T01:13:07.065Z,16.58
2023-04-10T01:15:57.800Z,16.67
2023-04-10T01:18:43.519Z,16.73
2023-04-10T01:21:14.843Z,15.55
2023-04-10T01:24:11.724Z,16.48
2023-04-10T01:27:17.052Z,16.55
2023-04-10T01:29:52.122Z,16.45
2023-04-10T01:32:22.604Z,17.33
2023-04-10T01:34:57.275Z,16.75
2023-04-10T01:37:30.372Z,17.10
2023-04-10T01:40:07.107Z,17.52
2023-04-10T01:42:42.354Z,17.35
2023-04-10T01:45:18.559Z,16.33
2023-04-10T01:47:46.077Z,16.42
2023-04-10T01:50:14.055Z,17.23
2023-04-10T01:52:42.354Z,16.75
2023-04-10T01:55:10.285Z,16.98
2023-04-10T01:57:37.550Z,16.30
2023-04-10T02:00:05.526Z,16.60
2023-04-10T02:02:34.235Z,15.55
2023-04-10T02:05:01.692Z,15.85
2023-04-10T02:07:31.522Z,15.57
2023-04-10T02:10:37.407Z,15.35
2023-04-10T02:13:11.490Z,15.32
2023-04-10T02:15:43.786Z,15.02
2023-04-10T02:18:12.123Z,15.07
2023-04-10T02:20:39.243Z,14.85
2023-04-10T02:23:06.983Z,16.02
2023-04-10T02:25:36.902Z,15.05
2023-04-10T02:28:05.553Z,15.82
2023-04-10T02:30:36.003Z,15.07
2023-04-10T02:33:03.211Z,16.08
2023-04-10T02:35:34.551Z,14.80
2023-04-10T02:38:01.728Z,15.82
2023-04-10T02:40:28.876Z,15.52
2023-04-10T02:42:56.202Z,14.15
2023-04-10T02:45:23.292Z,14.23
2023-04-10T02:47:50.425Z,14.45
2023-04-10T02:50:18.194Z,14.75
2023-04-10T02:52:45.460Z,14.63
2023-04-10T02:55:12.777Z,15.20
2023-04-10T02:57:41.510Z,14.23
2023-04-10T03:00:09.817Z,15.00
2023-04-10T03:02:37.357Z,15.43
2023-04-10T03:05:04.923Z,14.05
2023-04-10T03:07:32.327Z,15.80
2023-04-10T03:09:59.497Z,15.05
2023-04-10T03:12:26.593Z,14.75
2023-04-10T03:14:53.730Z,15.25
2023-04-10T03:17:21.015Z,14.40
2023-04-10T03:19:48.102Z,14.73
2023-04-10T03:22:15.187Z,14.77
2023-04-10T03:24:42.412Z,15.63
2023-04-10T03:27:09.541Z,15.80
2023-04-10T03:29:36.643Z,15.13
2023-04-10T03:32:03.877Z,14.00
2023-04-10T03:34:31.010Z,15.93
2023-04-10T03:36:58.097Z,16.17
2023-04-10T03:39:25.369Z,14.98
2023-04-10T03:41:52.519Z,16.10
2023-04-10T03:44:19.787Z,14.35
2023-04-10T03:46:46.961Z,13.38
2023-04-10T03:49:14.026Z,14.82
2023-04-10T03:51:41.092Z,15.20
2023-04-10T03:54:08.163Z,15.32
2023-04-10T03:56:35.439Z,14.15
2023-04-10T03:59:02.529Z,14.63
2023-04-10T04:01:29.957Z,14.80
2023-04-10T04:03:57.593Z,14.65
2023-04-10T04:06:25.578Z,14.43
2023-04-10T04:08:52.783Z,15.35
2023-04-10T04:11:19.915Z,15.27
2023-04-10T04:13:46.938Z,15.45
2023-04-10T04:16:14.174Z,15.73
2023-04-10T04:18:41.279Z,15.75
2023-04-10T04:21:08.664Z,15.90
2023-04-10T04:23:36.007Z,15.38
2023-04-10T04:26:03.152Z,14.55
2023-04-10T04:28:30.497Z,14.20
2023-04-10T04:30:57.715Z,14.82
2023-04-10T04:33:24.792Z,14.55
2023-04-10T04:35:51.919Z,14.15
2023-04-10T04:38:20.289Z,14.48
2023-04-10T04:40:47.404Z,16.20
2023-04-10T04:43:14.538Z,14.60
2023-04-10T04:45:41.613Z,14.73
2023-04-10T04:48:08.665Z,14.93
2023-04-10T04:50:35.891Z,16.40
2023-04-10T04:53:02.974Z,14.35
2023-04-10T04:55:30.034Z,16.60
2023-04-10T04:57:57.106Z,15.45
2023-04-10T05:00:24.210Z,14.95
2023-04-10T05:02:51.607Z,16.50
2023-04-10T05:05:18.795Z,16.45
2023-04-10T05:07:45.858Z,16.15
2023-04-10T05:10:12.971Z,15.50
2023-04-10T05:12:41.941Z,17.00
2023-04-10T05:15:09.904Z,16.88
2023-04-10T05:17:37.126Z,15.05
2023-04-10T05:20:04.938Z,16.50
2023-04-10T05:22:32.554Z,15.57
2023-04-10T05:25:02.496Z,16.23
2023-04-10T05:27:29.760Z,15.40
2023-04-10T05:29:56.829Z,15.38
2023-04-10T05:32:24.019Z,16.20
2023-04-10T05:34:51.444Z,15.70
2023-04-10T05:37:18.573Z,15.70
2023-04-10T05:39:45.818Z,16.15
2023-04-10T05:42:13.571Z,15.60
2023-04-10T05:44:40.897Z,16.27
2023-04-10T05:47:08.027Z,14.85
2023-04-10T05:49:35.166Z,15.32
2023-04-10T05:52:02.274Z,14.77
2023-04-10T05:54:29.362Z,15.48
2023-04-10T05:56:56.822Z,16.42
2023-04-10T05:59:24.031Z,16.30
2023-04-10T06:01:51.684Z,16.80
2023-04-10T06:04:19.141Z,15.70
2023-04-10T06:06:46.460Z,15.63
2023-04-10T06:09:13.546Z,16.45
2023-04-10T06:11:41.132Z,15.73
2023-04-10T06:14:08.215Z,15.88
2023-04-10T06:16:35.532Z,15.75
2023-04-10T06:19:02.967Z,16.35
2023-04-10T06:21:30.057Z,15.57
2023-04-10T06:23:57.166Z,17.20
2023-04-10T06:26:25.988Z,16.35
2023-04-10T06:28:53.369Z,15.65
2023-04-10T06:31:24.280Z,16.10
2023-04-10T06:33:51.488Z,16.08
2023-04-10T06:36:18.667Z,16.05
2023-04-10T06:38:45.859Z,17.33
2023-04-10T06:41:12.950Z,17.17
2023-04-10T06:43:40.373Z,17.52
2023-04-10T06:46:07.773Z,16.65
2023-04-10T06:48:34.959Z,17.63
2023-04-10T06:51:02.135Z,19.17
2023-04-10T06:53:29.679Z,17.42
2023-04-10T06:55:57.481Z,19.50
2023-04-10T06:58:24.666Z,18.02
2023-04-10T07:00:52.068Z,18.10
2023-04-10T07:03:19.289Z,18.70
2023-04-10T07:05:46.492Z,19.10
2023-04-10T07:08:13.605Z,20.13
2023-04-10T07:10:40.788Z,19.42
2023-04-10T07:13:08.111Z,18.30
2023-04-10T07:15:35.305Z,18.23
2023-04-10T07:18:02.533Z,18.85
2023-04-10T07:20:29.720Z,18.95
2023-04-10T07:22:56.881Z,19.25
2023-04-10T07:25:23.959Z,18.88
2023-04-10T07:27:51.212Z,19.58
2023-04-10T07:30:19.654Z,18.77
2023-04-10T07:32:46.986Z,19.77
2023-04-10T07:35:17.012Z,19.67
2023-04-10T07:37:44.391Z,19.13
2023-04-10T07:40:12.140Z,21.10
2023-04-10T07:42:39.368Z,20.27
2023-04-10T07:45:07.398Z,21.15
2023-04-10T07:47:34.522Z,21.80
2023-04-10T07:50:01.807Z,22.08
2023-04-10T07:52:29.017Z,21.15
2023-04-10T07:54:56.114Z,21.67
2023-04-10T07:57:24.548Z,21.77
2023-04-10T07:59:51.618Z,21.15
2023-04-10T08:02:18.761Z,20.17
2023-04-10T08:04:46.132Z,19.90
2023-04-10T08:07:13.363Z,21.10
2023-04-10T08:09:40.833Z,21.58
2023-04-10T08:12:07.937Z,21.10
2023-04-10T08:14:35.045Z,22.35
2023-04-10T08:17:02.362Z,21.52
2023-04-10T08:19:29.556Z,22.08
2023-04-10T08:21:56.646Z,23.40
2023-04-10T08:24:23.719Z,23.40
2023-04-10T08:26:50.913Z,22.17
2023-04-10T08:29:18.003Z,23.40
2023-04-10T08:31:45.090Z,22.05
2023-04-10T08:34:12.238Z,22.65
2023-04-10T08:36:39.306Z,23.15
2023-04-10T08:39:06.430Z,21.27
2023-04-10T08:41:33.639Z,23.55
2023-04-10T08:44:00.812Z,22.98
2023-04-10T08:46:31.718Z,21.67
2023-04-10T08:49:05.853Z,22.20
2023-04-10T08:51:47.843Z,22.77
2023-04-10T08:54:26.136Z,21.50
2023-04-10T08:56:56.024Z,21.13
2023-04-10T08:59:23.411Z,21.52
2023-04-10T09:01:50.715Z,21.73
2023-04-10T09:04:21.814Z,21.92
2023-04-10T09:06:49.075Z,21.02
2023-04-10T09:09:16.317Z,20.98
2023-04-10T09:11:52.521Z,19.80
2023-04-10T09:14:34.637Z,21.33
2023-04-10T09:17:20.353Z,20.90
2023-04-10T09:19:55.737Z,22.00
2023-04-10T09:22:34.822Z,19.88
2023-04-10T09:25:04.360Z,19.98
2023-04-10T09:27:35.327Z,18.95
2023-04-10T09:30:03.506Z,19.55
2023-04-10T09:32:38.124Z,19.48
2023-04-10T09:35:06.038Z,19.70
2023-04-10T09:37:34.642Z,19.73
2023-04-10T09:40:02.619Z,20.45
2023-04-10T09:42:37.305Z,20.17
2023-04-10T09:45:06.008Z,20.85
2023-04-10T09:47:33.258Z,21.17
2023-04-10T09:50:01.200Z,22.08
2023-04-10T09:52:37.416Z,21.73
2023-04-10T09:55:09.962Z,21.67
2023-04-10T09:57:37.102Z,20.58
2023-04-10T10:00:07.259Z,21.17
2023-04-10T10:02:40.770Z,21.08
2023-04-10T10:05:08.673Z,22.88
2023-04-10T10:07:36.793Z,22.35
2023-04-10T10:10:06.384Z,22.42
2023-04-10T10:12:50.538Z,22.40
2023-04-10T10:15:46.789Z,21.20
2023-04-10T10:18:49.518Z,22.92
2023-04-10T10:21:19.058Z,22.73
2023-04-10T10:23:48.326Z,22.85
2023-04-10T10:26:16.177Z,22.95
2023-04-10T10:28:46.385Z,23.65
2023-04-10T10:31:13.935Z,22.42
2023-04-10T10:33:41.796Z,21.98
2023-04-10T10:36:10.892Z,21.92
2023-04-10T10:38:48.192Z,22.80
2023-04-10T10:41:32.852Z,22.33
2023-04-10T10:44:31.902Z,22.35
2023-04-10T10:47:06.352Z,22.50
2023-04-10T10:49:56.878Z,22.23
2023-04-10T10:53:02.537Z,22.38
2023-04-10T10:55:31.683Z,22.40
2023-04-10T10:58:09.776Z,22.23
2023-04-10T11:00:51.815Z,21.58
2023-04-10T11:03:19.167Z,21.42
2023-04-10T11:06:07.218Z,21.13
2023-04-10T11:08:35.309Z,22.15
2023-04-10T11:11:16.293Z,21.50
2023-04-10T11:14:06.501Z,21.42
2023-04-10T11:16:34.905Z,21.33
2023-04-10T11:19:14.160Z,22.67
2023-04-10T11:22:08.147Z,22.92
2023-04-10T11:24:53.068Z,20.70
2023-04-10T11:27:48.619Z,21.25
2023-04-10T11:30:37.891Z,22.60
2023-04-10T11:33:06.011Z,22.30
2023-04-10T11:35:33.996Z,22.02
2023-04-10T11:38:16.709Z,21.50
2023-04-10T11:41:04.314Z,21.88
2023-04-10T11:43:33.793Z,21.85
2023-04-10T11:46:06.225Z,22.33
2023-04-10T11:48:33.990Z,21.42
2023-04-10T11:51:12.265Z,20.63
2023-04-10T11:53:41.319Z,22.30
2023-04-10T11:56:22.078Z,22.58
2023-04-10T11:58:54.726Z,21.10
2023-04-10T12:01:23.748Z,22.02
2023-04-10T12:03:51.692Z,20.85
2023-04-10T12:06:19.755Z,21.48
2023-04-10T12:08:51.522Z,20.73
2023-04-10T12:11:25.648Z,19.67
2023-04-10T12:13:55.142Z,21.13
2023-04-10T12:16:22.882Z,21.63
2023-04-10T12:18:50.727Z,21.23
2023-04-10T12:21:18.321Z,20.95
2023-04-10T12:23:45.618Z,20.85
2023-04-10T12:26:19.060Z,19.58
2023-04-10T12:28:59.636Z,19.83
2023-04-10T12:31:28.380Z,21.63
2023-04-10T12:33:57.884Z,19.83
2023-04-10T12:36:30.556Z,20.15
2023-04-10T12:39:18.861Z,18.55
2023-04-10T12:41:45.965Z,18.98
2023-04-10T12:44:14.541Z,17.63
2023-04-10T12:46:43.521Z,25.15
2023-04-10T12:49:16.464Z,17.75
2023-04-10T12:51:51.760Z,22.10
2023-04-10T12:54:33.554Z,19.20
2023-04-10T12:57:02.318Z,19.25
2023-04-10T12:59:30.466Z,17.90
2023-04-10T13:01:57.766Z,20.10
2023-04-10T13:04:25.405Z,18.88
2023-04-10T13:06:53.049Z,19.55
2023-04-10T13:09:20.370Z,18.70
2023-04-10T13:11:48.568Z,19.05
2023-04-10T13:14:17.891Z,18.95
2023-04-10T13:16:45.137Z,24.17
2023-04-10T13:19:13.023Z,19.10
2023-04-10T13:21:40.203Z,17.83
2023-04-10T13:24:07.292Z,19.10
2023-04-10T13:26:34.383Z,18.05
2023-04-10T13:29:01.466Z,18.35
2023-04-10T13:31:28.703Z,17.15
2023-04-10T13:33:55.803Z,17.98
2023-04-10T13:36:23.404Z,17.60
2023-04-10T13:38:50.955Z,17.80
2023-04-10T13:41:18.302Z,18.27
2023-04-10T13:43:45.471Z,17.40
2023-04-10T13:46:12.561Z,17.10
2023-04-10T13:48:41.469Z,18.23
2023-04-10T13:51:09.839Z,18.67
2023-04-10T13:53:36.980Z,18.25
2023-04-10T13:56:04.327Z,17.50
2023-04-10T13:58:34.250Z,16.42
2023-04-10T14:01:01.967Z,16.73
2023-04-10T14:03:29.333Z,15.55
2023-04-10T14:05:56.590Z,16.02
2023-04-10T14:08:23.727Z,16.90
2023-04-10T14:10:51.503Z,15.77
2023-04-10T14:13:19.262Z,16.52
2023-04-10T14:15:46.787Z,15.60
2023-04-10T14:18:17.450Z,14.93
2023-04-10T14:20:44.808Z,14.93
2023-04-10T14:23:18.285Z,14.20
2023-04-10T14:25:46.861Z,15.35
2023-04-10T14:28:17.843Z,15.43
2023-04-10T14:30:50.903Z,12.88
2023-04-10T14:33:20.069Z,12.80
2023-04-10T14:35:48.418Z,12.50
2023-04-10T14:38:16.004Z,13.23
2023-04-10T14:40:43.771Z,12.57
2023-04-10T14:43:10.900Z,14.80
2023-04-10T14:45:38.002Z,14.02
2023-04-10T14:48:05.242Z,14.57
2023-04-10T14:50:33.419Z,15.93
2023-04-10T14:53:00.866Z,15.05
2023-04-10T14:55:31.080Z,14.10
2023-04-10T14:57:58.986Z,14.77
2023-04-10T15:00:26.835Z,16.40
2023-04-10T15:02:54.183Z,16.55
2023-04-10T15:05:23.138Z,16.20
2023-04-10T15:07:50.273Z,16.63
2023-04-10T15:10:17.514Z,16.60
2023-04-10T15:12:44.721Z,14.45
2023-04-10T15:15:11.978Z,14.27
2023-04-10T15:17:39.106Z,14.05
2023-04-10T15:20:07.078Z,14.23
2023-04-10T15:22:35.674Z,15.05
2023-04-10T15:25:03.097Z,14.13
2023-04-10T15:27:30.642Z,13.32
2023-04-10T15:29:57.767Z,13.00
2023-04-10T15:32:25.032Z,14.30
2023-04-10T15:34:52.233Z,13.70
2023-04-10T15:37:19.314Z,14.50
2023-04-10T15:39:46.391Z,13.07
2023-04-10T15:42:13.614Z,12.60
2023-04-10T15:44:40.826Z,12.93
2023-04-10T15:47:07.974Z,13.80
2023-04-10T15:49:38.274Z,13.35
2023-04-10T15:52:07.269Z,13.15
2023-04-10T15:54:35.082Z,11.65
2023-04-10T15:57:03.683Z,12.85
2023-04-10T15:59:32.771Z,11.80
2023-04-10T16:01:59.933Z,11.77
2023-04-10T16:04:27.191Z,10.68
2023-04-10T16:06:56.306Z,11.65
2023-04-10T16:09:26.416Z,12.10
2023-04-10T16:11:54.968Z,13.38
2023-04-10T16:14:22.765Z,14.13
2023-04-10T16:16:51.084Z,13.68
2023-04-10T16:19:18.218Z,13.13
2023-04-10T16:21:45.301Z,13.55
2023-04-10T16:24:12.472Z,14.55
2023-04-10T16:26:39.591Z,14.10
2023-04-10T16:29:06.726Z,13.45
2023-04-10T16:31:33.891Z,13.52
2023-04-10T16:34:01.374Z,13.55
2023-04-10T16:36:28.466Z,13.13
2023-04-10T16:38:55.786Z,13.70
2023-04-10T16:41:23.152Z,14.10
2023-04-10T16:43:50.288Z,13.85
2023-04-10T16:46:17.660Z,12.40
2023-04-10T16:48:44.975Z,12.35
2023-04-10T16:51:18.802Z,12.98
2023-04-10T16:53:46.125Z,14.00
2023-04-10T16:56:13.474Z,13.35
2023-04-10T16:58:42.069Z,14.73
2023-04-10T17:01:18.361Z,13.98
2023-04-10T17:03:47.715Z,13.82
2023-04-10T17:06:16.248Z,12.55
2023-04-10T17:08:44.436Z,12.73
2023-04-10T17:11:15.995Z,13.05
2023-04-10T17:13:43.172Z,12.48
2023-04-10T17:16:10.711Z,14.63
2023-04-10T17:18:37.962Z,13.40
2023-04-10T17:21:05.519Z,14.88
2023-04-10T17:23:32.784Z,12.70
2023-04-10T17:26:00.150Z,14.20
2023-04-10T17:28:27.663Z,14.75
2023-04-10T17:30:54.738Z,13.88
2023-04-10T17:33:23.632Z,15.68
2023-04-10T17:35:52.034Z,13.73
2023-04-10T17:38:19.876Z,14.30
2023-04-10T17:40:47.387Z,13.80
2023-04-10T17:43:14.480Z,13.88
2023-04-10T17:45:41.718Z,14.35
2023-04-10T17:48:10.266Z,15.00
2023-04-10T17:50:37.519Z,15.73
2023-04-10T17:53:06.072Z,13.93
2023-04-10T17:55:39.407Z,15.43
2023-04-10T17:58:06.672Z,15.50
2023-04-10T18:00:34.376Z,14.50
2023-04-10T18:03:01.617Z,15.15
2023-04-10T18:05:34.760Z,14.93
2023-04-10T18:08:02.137Z,15.18
2023-04-10T18:10:29.193Z,16.08
2023-04-10T18:12:59.101Z,16.58
2023-04-10T18:15:27.253Z,15.73
2023-04-10T18:17:55.439Z,14.90
2023-04-10T18:20:22.795Z,15.77
2023-04-10T18:22:49.929Z,15.35
2023-04-10T18:25:20.780Z,15.73
2023-04-10T18:28:12.992Z,15.95
2023-04-10T18:30:40.521Z,15.18
2023-04-10T18:33:11.088Z,16.10
2023-04-10T18:35:38.984Z,17.02
2023-04-10T18:38:06.423Z,16.85
2023-04-10T18:40:35.039Z,15.93
2023-04-10T18:43:02.293Z,16.35
2023-04-10T18:45:29.923Z,16.67
2023-04-10T18:47:57.581Z,15.52
2023-04-10T18:50:25.159Z,16.92
2023-04-10T18:52:52.943Z,16.63
2023-04-10T18:55:21.541Z,15.43
2023-04-10T18:57:48.872Z,16.67
2023-04-10T19:00:16.804Z,16.95
2023-04-10T19:02:44.643Z,16.98
2023-04-10T19:05:14.384Z,17.48
2023-04-10T19:07:47.227Z,17.27
2023-04-10T19:10:20.911Z,17.15
2023-04-10T19:12:49.301Z,17.33
2023-04-10T19:15:17.212Z,17.15
2023-04-10T19:17:44.703Z,18.27
2023-04-10T19:20:12.641Z,19.05
2023-04-10T19:22:40.709Z,17.95
2023-04-10T19:25:09.104Z,19.42
2023-04-10T19:27:37.157Z,18.30
2023-04-10T19:30:06.917Z,19.02
2023-04-10T19:32:34.332Z,19.23
2023-04-10T19:35:02.375Z,19.25
2023-04-10T19:37:31.477Z,17.83
2023-04-10T19:39:58.713Z,19.98
2023-04-10T19:42:26.236Z,20.13
2023-04-10T19:44:53.787Z,20.83
2023-04-10T19:47:21.603Z,21.08
2023-04-10T19:49:49.217Z,20.02
2023-04-10T19:52:17.020Z,20.67
2023-04-10T19:54:44.357Z,19.75
2023-04-10T19:57:11.684Z,21.00
2023-04-10T19:59:39.138Z,20.27
2023-04-10T20:02:09.163Z,19.95
2023-04-10T20:04:37.073Z,20.70
2023-04-10T20:07:04.500Z,20.02
2023-04-10T20:09:31.778Z,20.63
2023-04-10T20:11:59.025Z,21.55
2023-04-10T20:14:26.153Z,22.27
2023-04-10T20:16:53.298Z,23.80
2023-04-10T20:19:20.553Z,22.25
2023-04-10T20:21:47.900Z,22.20
2023-04-10T20:24:15.283Z,23.17
2023-04-10T20:26:42.417Z,21.73
2023-04-10T20:29:09.469Z,24.20
2023-04-10T20:31:36.610Z,22.13
2023-04-10T20:34:04.020Z,23.10
2023-04-10T20:36:32.435Z,23.45
2023-04-10T20:38:59.545Z,23.60
2023-04-10T20:41:27.876Z,24.30
2023-04-10T20:43:57.413Z,25.35
2023-04-10T20:46:27.150Z,23.95
2023-04-10T20:48:59.300Z,24.40
2023-04-10T20:51:28.085Z,24.48
2023-04-10T20:53:55.288Z,23.58
2023-04-10T20:56:32.817Z,23.35
2023-04-10T20:59:07.659Z,25.48
2023-04-10T21:01:35.092Z,22.10
2023-04-10T21:04:02.867Z,24.42
2023-04-10T21:06:31.775Z,24.33
2023-04-10T21:08:58.855Z,23.40
2023-04-10T21:11:28.928Z,23.92
2023-04-10T21:13:56.033Z,24.30
2023-04-10T21:16:23.209Z,22.33
2023-04-10T21:18:51.443Z,22.73
2023-04-10T21:21:18.634Z,22.65
2023-04-10T21:23:45.829Z,23.95
2023-04-10T21:26:13.029Z,22.60
2023-04-10T21:28:40.199Z,25.08
2023-04-10T21:31:07.478Z,22.92
2023-04-10T21:33:34.599Z,25.48
2023-04-10T21:36:01.842Z,25.35
2023-04-10T21:38:29.134Z,24.42
2023-04-10T21:40:56.338Z,24.02
2023-04-10T21:43:23.499Z,24.80
2023-04-10T21:45:50.648Z,25.27
2023-04-10T21:48:19.508Z,25.55
2023-04-10T21:50:47.192Z,25.23
2023-04-10T21:53:15.475Z,24.35
2023-04-10T21:55:42.631Z,25.85
2023-04-10T21:58:09.772Z,25.15
2023-04-10T22:00:36.904Z,26.15
2023-04-10T22:03:04.290Z,25.75
2023-04-10T22:05:31.884Z,29.67
2023-04-10T22:07:58.994Z,25.58
2023-04-10T22:10:26.151Z,28.98
2023-04-10T22:12:53.275Z,27.45
2023-04-10T22:15:20.598Z,26.67
2023-04-10T22:17:47.746Z,30.38
2023-04-10T22:20:14.934Z,28.55
2023-04-10T22:22:42.041Z,27.83
2023-04-10T22:25:09.499Z,27.10
2023-04-10T22:27:37.201Z,26.73
2023-04-10T22:30:04.919Z,26.13
2023-04-10T22:32:32.511Z,26.88
2023-04-10T22:35:00.291Z,26.27
2023-04-10T22:37:28.078Z,24.80
2023-04-10T22:39:58.043Z,27.48
2023-04-10T22:42:25.195Z,28.23
2023-04-10T22:44:52.346Z,25.35
2023-04-10T22:47:19.568Z,28.90
2023-04-10T22:49:46.630Z,29.63
2023-04-10T22:52:13.883Z,31.70
2023-04-10T22:54:40.995Z,31.92
2023-04-10T22:57:08.070Z,29.58
2023-04-10T22:59:38.714Z,30.92
2023-04-10T23:02:05.883Z,30.50
2023-04-10T23:04:33.160Z,29.10
2023-04-10T23:07:00.440Z,28.77
2023-04-10T23:09:28.586Z,27.00
2023-04-10T23:11:56.489Z,26.60
2023-04-10T23:14:23.632Z,25.85
2023-04-10T23:16:50.960Z,26.25
2023-04-10T23:19:19.093Z,26.60
2023-04-10T23:21:46.226Z,26.20
2023-04-10T23:24:13.332Z,26.45
2023-04-10T23:26:40.408Z,28.63
2023-04-10T23:29:07.548Z,28.60
2023-04-10T23:31:34.644Z,26.98
2023-04-10T23:34:01.783Z,27.95
2023-04-10T23:36:28.869Z,29.42
2023-04-10T23:38:56.103Z,27.55
2023-04-10T23:41:23.331Z,25.08
2023-04-10T23:43:50.510Z,25.50
2023-04-10T23:46:17.618Z,24.42
2023-04-10T23:48:44.738Z,24.58
2023-04-10T23:51:11.807Z,23.85
2023-04-10T23:53:38.918Z,24.23
2023-04-10T23:56:07.970Z,25.85
2023-04-10T23:58:35.256Z,25.10
